Time;durP1;ratioP1;P1;durP2;ratioP2;P2;SDS_P1;SDS_P2;PMS_P1;PMS_P2;Temp;Humidity;BMP_temperature;BMP_pressure;BME280_temperature;BME280_humidity;BME280_pressure;Samples;Min_cycle;Max_cycle;Signal;HPM_P1;HPM_P2
2022/07/10 00:01:00;;;;;;;5.70;5.30;;;18.00;99.90;;;;;;4958354;28;20196;-89
2022/07/10 00:03:26;;;;;;;5.77;5.27;;;18.00;99.90;;;;;;4975487;28;20700;-88
2022/07/10 00:05:52;;;;;;;5.80;5.40;;;18.00;99.90;;;;;;4955446;28;20445;-87
2022/07/10 00:08:19;;;;;;;5.80;5.30;;;18.10;99.90;;;;;;4972719;28;20192;-88
2022/07/10 00:10:46;;;;;;;6.27;5.63;;;18.10;99.90;;;;;;4959851;28;20985;-89
2022/07/10 00:13:11;;;;;;;6.53;5.93;;;18.20;99.90;;;;;;4960500;28;20539;-88
2022/07/10 00:15:37;;;;;;;5.70;5.30;;;18.20;99.90;;;;;;4952034;28;20468;-88
2022/07/10 00:18:02;;;;;;;6.23;5.73;;;18.10;99.90;;;;;;4959029;28;21020;-89
2022/07/10 00:20:28;;;;;;;6.27;5.77;;;18.00;99.90;;;;;;4975449;28;20216;-91
2022/07/10 00:22:53;;;;;;;6.43;5.80;;;18.00;99.90;;;;;;4958143;28;22332;-89
2022/07/10 00:25:19;;;;;;;5.57;5.07;;;18.10;99.90;;;;;;4955603;28;20200;-89
2022/07/10 00:27:44;;;;;;;6.30;5.80;;;18.10;99.90;;;;;;4980674;28;20185;-89
2022/07/10 00:30:11;;;;;;;6.00;5.47;;;18.10;99.90;;;;;;4964302;28;20264;-90
2022/07/10 00:32:37;;;;;;;7.37;5.90;;;18.10;99.90;;;;;;4984741;28;20433;-89
2022/07/10 00:35:07;;;;;;;6.37;5.87;;;18.10;99.90;;;;;;4996271;28;20501;-88
2022/07/10 00:37:33;;;;;;;6.10;5.70;;;18.10;99.90;;;;;;4997992;28;20448;-89
2022/07/10 00:39:59;;;;;;;6.10;5.50;;;18.10;99.90;;;;;;4961632;28;20444;-88
2022/07/10 00:42:32;;;;;;;5.97;5.53;;;18.00;99.90;;;;;;4959481;28;20495;-89
2022/07/10 00:44:58;;;;;;;7.17;6.60;;;18.00;99.90;;;;;;4976348;28;20466;-89
2022/07/10 00:47:23;;;;;;;6.73;6.23;;;17.90;99.90;;;;;;4960731;28;20970;-88
2022/07/10 00:49:49;;;;;;;7.70;7.10;;;17.80;99.90;;;;;;4974510;28;20193;-88
2022/07/10 00:52:16;;;;;;;5.47;5.17;;;17.90;99.90;;;;;;4960458;28;20185;-88
2022/07/10 00:54:45;;;;;;;6.80;6.10;;;17.80;99.90;;;;;;4962657;28;20452;-91
2022/07/10 00:57:14;;;;;;;5.83;5.33;;;18.00;99.90;;;;;;4957607;28;20491;-88
2022/07/10 00:59:39;;;;;;;6.60;6.00;;;17.80;99.90;;;;;;4960994;28;20445;-89
2022/07/10 01:02:06;;;;;;;6.17;5.43;;;17.70;99.90;;;;;;4974059;28;20448;-89
2022/07/10 01:04:32;;;;;;;6.63;5.50;;;17.60;99.90;;;;;;4961171;28;20279;-88
2022/07/10 01:06:58;;;;;;;5.60;5.20;;;17.50;99.90;;;;;;4958729;28;20444;-88
2022/07/10 01:09:23;;;;;;;5.83;5.43;;;17.50;99.90;;;;;;4962501;28;20240;-89
2022/07/10 01:11:50;;;;;;;5.90;5.50;;;17.50;99.90;;;;;;4981502;28;21591;-89
2022/07/10 01:14:16;;;;;;;6.73;5.37;;;17.40;99.90;;;;;;4994214;28;20655;-89
2022/07/10 01:16:41;;;;;;;5.50;5.10;;;17.40;99.90;;;;;;4962603;28;20479;-88
2022/07/10 01:19:07;;;;;;;6.13;5.73;;;17.40;99.90;;;;;;4982156;28;20612;-88
2022/07/10 01:21:35;;;;;;;5.70;5.30;;;17.40;99.90;;;;;;4960603;28;20185;-88
2022/07/10 01:24:07;;;;;;;5.83;5.33;;;17.40;99.90;;;;;;4957426;28;20860;-88
2022/07/10 01:26:32;;;;;;;5.37;4.97;;;17.40;99.90;;;;;;4980623;28;20732;-87
2022/07/10 01:29:01;;;;;;;5.70;5.20;;;17.40;99.90;;;;;;4978110;28;20447;-88
2022/07/10 01:31:27;;;;;;;6.00;5.60;;;17.40;99.90;;;;;;4993162;28;20559;-88
2022/07/10 01:33:54;;;;;;;6.00;5.60;;;17.30;99.90;;;;;;4961729;28;20960;-87
2022/07/10 01:36:20;;;;;;;5.60;5.20;;;17.20;99.90;;;;;;4976251;28;20846;-88
2022/07/10 01:38:46;;;;;;;5.90;5.50;;;17.20;99.90;;;;;;4976390;28;20904;-87
2022/07/10 01:41:12;;;;;;;5.63;5.23;;;17.20;99.90;;;;;;4962437;28;20448;-88
2022/07/10 01:43:42;;;;;;;5.97;5.47;;;17.10;99.90;;;;;;4981282;28;20196;-87
2022/07/10 01:46:07;;;;;;;6.20;5.70;;;17.10;99.90;;;;;;4960640;28;20268;-88
2022/07/10 01:48:33;;;;;;;6.80;5.40;;;17.10;99.90;;;;;;4977473;28;20455;-88
2022/07/10 01:50:59;;;;;;;5.90;5.50;;;17.20;99.90;;;;;;4966057;28;20241;-88
2022/07/10 01:53:24;;;;;;;5.87;5.47;;;17.00;99.90;;;;;;4961957;28;20322;-87
2022/07/10 01:55:50;;;;;;;5.93;5.43;;;17.00;99.90;;;;;;4980004;28;20392;-89
2022/07/10 01:58:15;;;;;;;5.83;5.43;;;17.00;99.90;;;;;;4962628;28;20704;-89
2022/07/10 02:00:41;;;;;;;5.93;5.43;;;17.10;99.90;;;;;;4962714;28;20231;-89
2022/07/10 02:05:50;;;;;;;5.80;5.30;;;17.00;99.90;;;;;;4979952;28;20277;-90
2022/07/10 02:08:16;;;;;;;6.30;5.70;;;16.90;99.90;;;;;;4962735;28;20441;-89
2022/07/10 02:10:41;;;;;;;5.60;5.20;;;16.80;99.90;;;;;;4977431;28;20236;-89
2022/07/10 02:13:07;;;;;;;6.10;5.60;;;16.90;99.90;;;;;;4961139;28;20186;-89
2022/07/10 02:15:33;;;;;;;6.10;5.60;;;16.90;99.90;;;;;;4974547;28;20300;-89
2022/07/10 02:17:58;;;;;;;6.17;5.70;;;16.80;99.90;;;;;;4976663;28;20194;-89
2022/07/10 02:20:24;;;;;;;5.83;5.43;;;16.70;99.90;;;;;;4972694;28;20542;-89
2022/07/10 02:22:49;;;;;;;6.57;6.07;;;16.60;99.90;;;;;;4978266;28;20207;-89
2022/07/10 02:25:15;;;;;;;6.00;5.60;;;16.60;99.90;;;;;;4956929;28;20387;-89
2022/07/10 02:27:41;;;;;;;5.60;5.20;;;16.50;99.90;;;;;;4958319;28;20194;-89
2022/07/10 02:30:07;;;;;;;6.27;5.80;;;16.50;99.90;;;;;;4959685;28;20185;-90
2022/07/10 02:32:32;;;;;;;6.10;5.70;;;16.50;99.90;;;;;;4973018;28;20190;-88
2022/07/10 02:34:59;;;;;;;6.70;6.20;;;16.40;99.90;;;;;;4962811;28;20297;-87
2022/07/10 02:37:25;;;;;;;7.07;6.20;;;16.40;99.90;;;;;;4958453;28;20492;-88
2022/07/10 02:39:50;;;;;;;6.73;6.23;;;16.40;99.90;;;;;;4961667;28;20194;-88
2022/07/10 02:42:19;;;;;;;6.43;5.93;;;16.40;99.90;;;;;;4958770;28;20280;-88
2022/07/10 02:44:44;;;;;;;7.23;6.63;;;16.40;99.90;;;;;;4959475;28;20182;-89
2022/07/10 02:47:10;;;;;;;7.17;6.67;;;16.50;99.90;;;;;;4958780;28;20506;-88
2022/07/10 02:49:38;;;;;;;7.47;6.97;;;16.50;99.90;;;;;;4967705;28;21090;-89
2022/07/10 02:52:04;;;;;;;7.30;6.60;;;16.50;99.90;;;;;;4976026;28;20611;-88
2022/07/10 02:54:30;;;;;;;6.90;6.40;;;16.40;99.90;;;;;;4975250;28;20494;-88
2022/07/10 02:56:56;;;;;;;7.60;6.80;;;16.30;99.90;;;;;;4968366;28;20893;-89
2022/07/10 02:59:21;;;;;;;7.80;7.20;;;16.40;99.90;;;;;;4974707;28;20189;-88
2022/07/10 03:01:49;;;;;;;8.07;7.47;;;16.40;99.90;;;;;;4961263;28;20534;-89
2022/07/10 03:04:15;;;;;;;7.83;7.10;;;16.40;99.90;;;;;;4960475;28;20519;-89
2022/07/10 03:06:40;;;;;;;8.83;8.13;;;16.40;99.90;;;;;;4957939;28;20656;-88
2022/07/10 03:09:06;;;;;;;10.20;9.30;;;16.30;99.90;;;;;;4955243;28;20187;-88
2022/07/10 03:11:31;;;;;;;10.83;9.77;;;16.20;99.90;;;;;;4975074;28;20257;-88
2022/07/10 03:13:57;;;;;;;10.90;9.90;;;16.30;99.90;;;;;;4961098;28;20585;-89
2022/07/10 03:16:22;;;;;;;9.70;9.00;;;16.30;99.90;;;;;;4974557;28;20766;-87
2022/07/10 03:18:48;;;;;;;11.47;10.50;;;16.30;99.90;;;;;;4973915;28;20883;-90
2022/07/10 03:21:13;;;;;;;11.97;10.97;;;16.20;99.90;;;;;;4960767;28;20189;-90
2022/07/10 03:23:39;;;;;;;12.43;11.33;;;16.10;99.90;;;;;;4959666;28;20193;-90
2022/07/10 03:26:05;;;;;;;11.70;10.70;;;16.10;99.90;;;;;;4956625;28;20280;-90
2022/07/10 03:28:31;;;;;;;13.37;12.10;;;16.00;99.90;;;;;;4959261;28;20201;-89
2022/07/10 03:30:56;;;;;;;13.27;12.20;;;15.90;99.90;;;;;;4958584;28;20555;-89
2022/07/10 03:33:22;;;;;;;12.20;11.20;;;15.90;99.90;;;;;;4957968;28;20600;-89
2022/07/10 03:35:48;;;;;;;12.97;11.83;;;15.90;99.90;;;;;;4957773;28;20337;-90
2022/07/10 03:38:13;;;;;;;13.60;12.43;;;15.90;99.90;;;;;;4958302;28;20181;-89
2022/07/10 03:40:39;;;;;;;13.20;12.00;;;15.80;99.90;;;;;;4960060;28;20182;-89
2022/07/10 03:43:04;;;;;;;12.73;11.60;;;15.80;99.90;;;;;;4972877;28;20728;-89
2022/07/10 03:45:30;;;;;;;13.50;12.40;;;15.70;99.90;;;;;;4973556;28;20193;-89
2022/07/10 03:47:56;;;;;;;13.90;12.63;;;15.60;99.90;;;;;;4973873;28;20240;-88
2022/07/10 03:50:21;;;;;;;12.80;11.70;;;15.50;99.90;;;;;;4977447;28;21399;-88
2022/07/10 03:52:47;;;;;;;13.37;12.10;;;15.60;99.90;;;;;;4956394;28;20682;-88
2022/07/10 03:55:13;;;;;;;12.93;11.80;;;15.50;99.90;;;;;;4970867;28;20583;-89
2022/07/10 03:57:53;;;;;;;13.23;12.10;;;15.40;99.90;;;;;;4958777;28;20663;-88
2022/07/10 04:00:23;;;;;;;13.00;11.90;;;15.50;99.90;;;;;;4976556;28;20189;-88
2022/07/10 04:02:58;;;;;;;12.67;11.57;;;15.40;99.90;;;;;;4976270;28;20452;-88
2022/07/10 04:05:24;;;;;;;12.87;11.60;;;15.50;99.90;;;;;;4958127;28;20502;-88
2022/07/10 04:07:50;;;;;;;13.10;12.00;;;15.50;99.90;;;;;;4956552;28;20854;-88
2022/07/10 04:10:15;;;;;;;13.73;12.50;;;15.50;99.90;;;;;;4946974;28;20492;-89
2022/07/10 04:12:42;;;;;;;12.10;11.10;;;15.60;99.90;;;;;;4959330;28;20273;-89
2022/07/10 04:15:08;;;;;;;11.77;10.67;;;15.50;99.90;;;;;;4953434;28;20443;-88
2022/07/10 04:17:33;;;;;;;11.67;10.70;;;15.50;99.90;;;;;;4958404;28;20455;-88
2022/07/10 04:20:00;;;;;;;12.70;11.50;;;15.50;99.90;;;;;;4960453;28;20595;-88
2022/07/10 04:22:27;;;;;;;12.13;11.10;;;15.60;99.90;;;;;;4975170;28;20431;-88
2022/07/10 04:24:53;;;;;;;12.80;11.70;;;15.60;99.90;;;;;;4976767;28;20437;-89
2022/07/10 04:27:18;;;;;;;12.30;11.10;;;15.60;99.90;;;;;;4973134;28;20519;-88
2022/07/10 04:29:44;;;;;;;13.50;12.10;;;15.60;99.90;;;;;;4960188;28;21192;-89
2022/07/10 04:32:09;;;;;;;12.77;11.70;;;15.50;99.90;;;;;;4961596;28;20276;-88
2022/07/10 04:34:35;;;;;;;11.10;10.07;;;15.40;99.90;;;;;;4974014;28;20181;-87
2022/07/10 04:37:01;;;;;;;12.43;11.33;;;15.40;99.90;;;;;;4952947;28;20500;-89
2022/07/10 04:39:26;;;;;;;11.27;10.30;;;15.40;99.90;;;;;;4960630;28;20739;-89
2022/07/10 04:42:08;;;;;;;11.30;10.30;;;15.50;99.90;;;;;;4972598;28;20554;-89
2022/07/10 04:44:34;;;;;;;11.47;10.57;;;15.60;99.90;;;;;;4976319;28;20236;-89
2022/07/10 04:47:00;;;;;;;13.33;11.53;;;15.60;99.90;;;;;;4962822;28;20472;-90
2022/07/10 04:49:26;;;;;;;11.73;10.63;;;15.50;99.90;;;;;;4965997;28;21052;-89
2022/07/10 04:51:52;;;;;;;11.77;10.77;;;15.50;99.90;;;;;;4982438;28;20177;-88
2022/07/10 04:54:17;;;;;;;12.70;10.40;;;15.40;99.90;;;;;;4988241;28;20182;-89
2022/07/10 04:56:43;;;;;;;10.73;9.87;;;15.60;99.90;;;;;;4984245;28;20530;-90
2022/07/10 04:59:09;;;;;;;11.50;10.50;;;15.60;99.90;;;;;;5003357;28;20185;-90
2022/07/10 05:01:35;;;;;;;12.83;10.40;;;15.70;99.90;;;;;;5006711;28;20416;-90
2022/07/10 05:04:01;;;;;;;11.63;10.60;;;15.70;99.90;;;;;;5002971;28;20295;-89
2022/07/10 05:06:26;;;;;;;11.27;10.23;;;15.60;99.90;;;;;;4983182;28;20481;-88
2022/07/10 05:08:53;;;;;;;12.17;11.20;;;15.60;99.90;;;;;;4978062;28;20186;-88
2022/07/10 05:11:19;;;;;;;10.33;9.43;;;15.70;99.90;;;;;;4964601;28;20185;-89
2022/07/10 05:13:46;;;;;;;11.03;10.13;;;15.70;99.90;;;;;;4964526;28;20509;-88
2022/07/10 05:16:12;;;;;;;10.50;9.57;;;15.80;99.90;;;;;;4978996;28;20213;-90
2022/07/10 05:18:38;;;;;;;11.13;10.07;;;15.80;99.90;;;;;;4955526;28;20945;-88
2022/07/10 05:21:04;;;;;;;11.20;10.30;;;15.80;99.90;;;;;;4976944;28;20449;-87
2022/07/10 05:23:30;;;;;;;10.23;9.33;;;15.80;99.90;;;;;;4963944;28;20460;-89
2022/07/10 05:25:55;;;;;;;11.63;9.20;;;15.80;99.90;;;;;;4980524;28;20194;-87
2022/07/10 05:28:21;;;;;;;10.40;9.40;;;16.00;99.90;;;;;;4993463;28;20194;-86
2022/07/10 05:30:46;;;;;;;8.50;7.70;;;16.20;99.90;;;;;;4973380;28;20284;-85
2022/07/10 05:33:12;;;;;;;8.90;7.90;;;16.40;99.90;;;;;;4980103;28;20193;-87
2022/07/10 05:35:37;;;;;;;8.07;6.90;;;16.60;99.90;;;;;;4975258;28;20468;-87
2022/07/10 05:38:03;;;;;;;8.97;6.73;;;16.40;99.90;;;;;;4961726;28;20310;-87
2022/07/10 05:40:28;;;;;;;8.43;7.67;;;16.20;99.90;;;;;;4975678;28;20540;-87
2022/07/10 05:42:54;;;;;;;7.20;6.70;;;16.20;99.90;;;;;;4959591;28;20186;-86
2022/07/10 05:45:19;;;;;;;8.30;7.60;;;16.10;99.90;;;;;;4975330;28;20320;-87
2022/07/10 05:47:45;;;;;;;7.50;6.70;;;16.10;99.90;;;;;;4991422;28;20217;-87
2022/07/10 05:50:11;;;;;;;7.73;7.03;;;16.20;99.90;;;;;;4953843;28;20190;-87
2022/07/10 05:52:37;;;;;;;7.47;6.77;;;16.20;99.90;;;;;;4948271;28;20189;-87
2022/07/10 05:55:04;;;;;;;6.37;5.77;;;16.20;99.90;;;;;;4950164;28;20561;-87
2022/07/10 05:57:32;;;;;;;6.00;5.60;;;16.50;99.90;;;;;;4955337;28;20484;-87
2022/07/10 05:59:58;;;;;;;6.47;5.87;;;16.80;99.90;;;;;;4977447;28;20458;-88
2022/07/10 06:02:23;;;;;;;6.57;5.67;;;17.00;99.90;;;;;;4958138;28;20454;-88
2022/07/10 06:04:49;;;;;;;5.93;5.33;;;16.80;99.90;;;;;;4973946;28;20289;-87
2022/07/10 06:07:15;;;;;;;6.13;5.63;;;16.80;99.90;;;;;;4962604;28;20197;-86
2022/07/10 06:09:42;;;;;;;5.57;5.03;;;16.90;99.90;;;;;;4977641;28;21087;-86
2022/07/10 06:12:08;;;;;;;6.27;5.77;;;17.30;99.90;;;;;;4957562;28;20541;-88
2022/07/10 06:14:33;;;;;;;5.90;5.40;;;17.30;99.90;;;;;;4971108;28;20449;-87
2022/07/10 06:16:59;;;;;;;7.67;4.77;;;17.10;99.90;;;;;;4955870;28;20662;-85
2022/07/10 06:19:24;;;;;;;12.20;5.17;;;17.00;99.90;;;;;;4961570;28;20631;-87
2022/07/10 06:22:30;;;;;;;6.90;4.87;;;17.20;99.90;;;;;;4960631;28;20308;-87
2022/07/10 06:24:35;;;;;;;4.40;4.00;;;17.40;99.90;;;;;;4975228;28;20323;-88
2022/07/10 06:27:01;;;;;;;4.73;4.17;;;17.90;99.90;;;;;;4956734;28;20971;-88
2022/07/10 06:29:26;;;;;;;5.33;4.20;;;17.90;99.90;;;;;;4957666;28;20193;-86
2022/07/10 06:31:52;;;;;;;3.93;3.60;;;18.00;99.90;;;;;;4960211;28;20910;-86
2022/07/10 06:34:19;;;;;;;4.30;4.00;;;18.00;99.90;;;;;;4953206;28;20196;-88
2022/07/10 06:36:44;;;;;;;4.23;3.40;;;17.90;99.90;;;;;;4966963;28;20635;-87
2022/07/10 06:39:10;;;;;;;3.80;3.40;;;17.90;99.90;;;;;;4973743;28;20437;-90
2022/07/10 06:41:35;;;;;;;3.90;3.50;;;17.90;99.90;;;;;;4960507;28;20243;-85
2022/07/10 06:44:02;;;;;;;3.80;3.23;;;18.10;99.90;;;;;;4979867;28;20582;-85
2022/07/10 06:47:55;;;;;;;3.37;3.00;;;17.90;99.90;;;;;;4960849;28;20191;-86
2022/07/10 06:49:35;;;;;;;2.83;2.63;;;17.90;99.90;;;;;;4979301;28;20728;-86
2022/07/10 06:52:18;;;;;;;4.23;2.70;;;18.00;99.90;;;;;;4979122;28;20493;-90
2022/07/10 06:54:44;;;;;;;2.70;2.47;;;17.90;99.90;;;;;;4976994;28;20782;-88
2022/07/10 06:57:10;;;;;;;4.13;2.77;;;18.00;99.90;;;;;;4961445;28;21059;-89
2022/07/10 06:59:40;;;;;;;3.20;3.00;;;18.00;99.90;;;;;;4962674;28;20441;-95
2022/07/10 07:02:11;;;;;;;5.13;2.57;;;18.00;99.90;;;;;;5655131;23;20575;-95
2022/07/10 07:05:17;;;;;;;4.40;3.00;;;18.40;99.90;;;;;;5225554;23;20579;-94
2022/07/10 07:07:43;;;;;;;4.70;2.50;;;18.40;99.90;;;;;;4989499;28;20446;-92
2022/07/10 07:10:10;;;;;;;3.60;3.30;;;18.30;99.90;;;;;;4984397;28;20448;-93
2022/07/10 07:12:35;;;;;;;3.37;3.07;;;18.30;99.90;;;;;;4983360;28;20254;-92
2022/07/10 07:15:01;;;;;;;3.50;3.20;;;18.30;99.90;;;;;;4977715;28;20452;-94
2022/07/10 07:17:33;;;;;;;3.87;2.70;;;18.40;99.90;;;;;;4975192;28;20293;-94
2022/07/10 07:25:28;;;;;;;3.53;3.23;;;18.30;99.90;;;;;;4998175;28;21067;-93
2022/07/10 07:27:57;;;;;;;5.87;3.53;;;18.30;99.90;;;;;;4979178;28;20439;-96
2022/07/10 07:30:28;;;;;;;8.00;3.87;;;18.40;99.90;;;;;;5115763;23;20228;-96
2022/07/10 07:32:53;;;;;;;3.27;3.03;;;18.20;99.90;;;;;;4971399;28;20810;-96
2022/07/10 07:35:20;;;;;;;5.37;3.40;;;18.00;99.90;;;;;;4965716;28;20445;-96
2022/07/10 07:37:50;;;;;;;5.20;3.40;;;17.20;99.90;;;;;;4964476;28;20225;-89
2022/07/10 07:40:22;;;;;;;2.63;2.43;;;17.30;99.90;;;;;;4960593;28;20451;-91
2022/07/10 07:42:53;;;;;;;6.70;2.97;;;17.50;99.90;;;;;;4974825;28;20546;-95
2022/07/10 07:45:19;;;;;;;3.80;3.00;;;17.60;99.90;;;;;;4958356;28;20445;-91
2022/07/10 07:47:46;;;;;;;3.80;3.03;;;18.00;99.90;;;;;;4964720;28;20567;-95
2022/07/10 07:50:13;;;;;;;5.17;3.40;;;18.20;99.90;;;;;;4966347;28;20436;-96
2022/07/10 07:52:40;;;;;;;4.10;3.00;;;17.70;99.90;;;;;;4977424;28;20467;-96
2022/07/10 07:55:10;;;;;;;4.30;3.50;;;17.60;99.90;;;;;;4976719;28;20441;-96
2022/07/10 07:57:49;;;;;;;3.43;2.80;;;17.90;99.90;;;;;;4969900;28;20488;-96
2022/07/10 08:00:17;;;;;;;3.40;3.10;;;18.40;99.90;;;;;;4954709;28;20510;-90
2022/07/10 08:02:43;;;;;;;2.90;2.70;;;18.30;99.90;;;;;;4963834;28;21064;-96
2022/07/10 08:05:09;;;;;;;2.87;2.67;;;18.50;99.90;;;;;;4962325;28;20436;-93
2022/07/10 08:07:38;;;;;;;3.10;2.80;;;19.00;99.90;;;;;;4983955;28;20514;-92
2022/07/10 08:10:05;;;;;;;2.93;2.73;;;19.10;99.90;;;;;;4992282;28;20452;-93
2022/07/10 08:12:30;;;;;;;3.00;2.70;;;18.40;99.90;;;;;;4992829;28;20447;-93
2022/07/10 08:14:58;;;;;;;3.57;2.77;;;18.40;99.90;;;;;;4962411;28;20979;-93
2022/07/10 08:17:32;;;;;;;3.53;3.00;;;18.40;99.90;;;;;;4987977;28;20223;-96
2022/07/10 08:20:08;;;;;;;3.90;2.57;;;18.10;99.90;;;;;;4976436;28;20444;-96
2022/07/10 08:23:15;;;;;;;4.93;2.90;;;18.20;99.90;;;;;;4964972;28;20536;-93
2022/07/10 08:25:44;;;;;;;3.20;2.50;;;18.10;99.90;;;;;;4988321;28;20479;-95
2022/07/10 08:28:13;;;;;;;5.87;2.90;;;17.90;99.90;;;;;;4975185;28;20531;-94
2022/07/10 08:30:41;;;;;;;4.37;2.90;;;17.70;99.90;;;;;;4972532;28;20528;-95
2022/07/10 08:33:07;;;;;;;7.30;3.10;;;17.80;99.90;;;;;;5001970;28;20829;-95
2022/07/10 08:35:33;;;;;;;3.40;3.10;;;18.00;99.90;;;;;;4968622;28;20443;-94
2022/07/10 08:37:59;;;;;;;3.60;2.97;;;18.30;99.90;;;;;;4972897;28;20189;-95
2022/07/10 08:40:42;;;;;;;3.00;2.80;;;18.30;99.90;;;;;;4989150;28;20236;-96
2022/07/10 08:43:20;;;;;;;4.60;3.23;;;18.90;99.90;;;;;;4979448;28;20524;-95
2022/07/10 08:45:53;;;;;;;3.43;3.13;;;19.50;99.90;;;;;;4976777;28;20498;-96
2022/07/10 08:48:38;;;;;;;4.20;3.50;;;19.30;99.50;;;;;;4986212;28;20463;-94
2022/07/10 08:51:09;;;;;;;5.10;2.87;;;19.00;99.90;;;;;;4988939;28;20514;-95
2022/07/10 08:53:38;;;;;;;3.50;3.10;;;18.60;99.90;;;;;;4973184;28;20428;-96
2022/07/10 08:56:04;;;;;;;4.50;2.73;;;18.80;99.90;;;;;;4972867;28;21239;-94
2022/07/10 08:58:33;;;;;;;3.67;2.87;;;19.20;99.90;;;;;;4986527;28;21657;-93
2022/07/10 09:00:58;;;;;;;3.13;2.60;;;19.20;99.90;;;;;;4966044;28;20440;-90
2022/07/10 09:03:24;;;;;;;4.17;2.60;;;19.60;99.90;;;;;;4966172;28;20467;-92
2022/07/10 09:05:51;;;;;;;3.63;2.73;;;19.20;99.90;;;;;;4963924;28;20636;-92
2022/07/10 09:08:31;;;;;;;3.40;2.63;;;19.60;99.90;;;;;;4966609;28;20371;-89
2022/07/10 09:11:29;;;;;;;5.57;2.80;;;19.40;97.70;;;;;;5007163;28;20455;-92
2022/07/10 09:14:39;;;;;;;2.70;2.50;;;19.80;99.90;;;;;;4991410;28;20460;-92
2022/07/10 09:17:05;;;;;;;3.27;2.93;;;20.70;98.20;;;;;;5002225;28;20515;-93
2022/07/10 09:19:52;;;;;;;3.10;2.47;;;20.90;95.80;;;;;;4984042;28;20969;-91
2022/07/10 09:22:45;;;;;;;6.30;3.30;;;20.30;96.00;;;;;;4978780;28;20461;-91
2022/07/10 09:26:05;;;;;;;4.37;2.70;;;20.40;97.90;;;;;;4969292;28;20465;-91
2022/07/10 09:28:31;;;;;;;2.80;2.33;;;20.50;97.20;;;;;;4962636;28;20453;-91
2022/07/10 09:31:10;;;;;;;3.00;2.57;;;20.70;96.20;;;;;;4957401;28;20977;-92
2022/07/10 09:33:45;;;;;;;2.43;2.23;;;20.30;96.70;;;;;;4965666;28;20201;-91
2022/07/10 09:36:11;;;;;;;3.10;2.67;;;20.00;96.50;;;;;;4964161;28;20647;-90
2022/07/10 09:38:43;;;;;;;2.53;2.33;;;20.30;97.30;;;;;;4966012;28;20437;-91
2022/07/10 09:41:16;;;;;;;3.07;2.67;;;20.20;98.10;;;;;;4969104;28;20440;-90
2022/07/10 09:44:04;;;;;;;4.00;2.60;;;20.70;96.00;;;;;;4994418;28;20802;-90
2022/07/10 09:46:38;;;;;;;6.10;2.57;;;20.50;95.40;;;;;;4967947;28;20459;-91
2022/07/10 09:49:14;;;;;;;2.90;2.60;;;20.20;96.60;;;;;;4965797;28;20456;-91
2022/07/10 09:51:45;;;;;;;4.17;2.80;;;19.60;95.40;;;;;;4980299;28;20460;-91
2022/07/10 09:54:11;;;;;;;2.60;2.37;;;19.50;95.20;;;;;;4983379;28;20818;-91
2022/07/10 09:56:55;;;;;;;2.70;2.50;;;18.80;96.40;;;;;;4965715;28;20516;-92
2022/07/10 09:59:24;;;;;;;4.37;3.27;;;18.50;97.20;;;;;;4966658;28;20433;-91
2022/07/10 10:01:52;;;;;;;2.93;2.50;;;18.50;97.20;;;;;;4965958;28;20807;-92
2022/07/10 10:04:24;;;;;;;2.60;1.77;;;19.50;99.90;;;;;;4967299;28;20833;-91
2022/07/10 10:07:02;;;;;;;3.87;2.63;;;20.20;94.90;;;;;;4995404;28;20447;-89
2022/07/10 10:09:37;;;;;;;6.00;3.20;;;19.80;93.90;;;;;;4982096;28;20913;-91
2022/07/10 10:12:09;;;;;;;2.43;2.33;;;19.30;94.10;;;;;;4964785;28;20444;-93
2022/07/10 10:14:36;;;;;;;2.43;2.23;;;19.30;94.10;;;;;;4958767;28;20484;-91
2022/07/10 10:17:04;;;;;;;2.30;2.10;;;19.40;94.60;;;;;;4966284;28;20473;-91
2022/07/10 10:22:18;;;;;;;2.33;2.23;;;19.50;94.20;;;;;;4977286;28;20545;-94
2022/07/10 10:24:45;;;;;;;3.87;2.47;;;18.80;93.50;;;;;;4962813;28;20451;-93
2022/07/10 10:27:11;;;;;;;2.20;2.00;;;19.10;93.40;;;;;;4962355;28;20436;-92
2022/07/10 10:32:59;;;;;;;2.40;2.20;;;19.10;94.30;;;;;;4981248;28;20293;-93
2022/07/10 10:35:48;;;;;;;2.80;2.03;;;19.90;95.50;;;;;;4966250;28;20913;-92
2022/07/10 10:38:15;;;;;;;2.00;1.80;;;20.20;93.20;;;;;;4960059;28;21061;-91
2022/07/10 10:40:51;;;;;;;2.03;1.93;;;19.70;92.50;;;;;;4967684;28;20437;-92
2022/07/10 10:43:23;;;;;;;3.27;2.07;;;19.10;93.70;;;;;;4961752;28;21689;-89
2022/07/10 10:45:52;;;;;;;2.00;1.90;;;18.50;93.70;;;;;;4992825;28;20874;-93
2022/07/10 10:48:23;;;;;;;3.87;2.07;;;19.10;94.20;;;;;;4983372;28;20856;-92
2022/07/10 10:50:56;;;;;;;2.63;2.20;;;19.90;93.60;;;;;;4979327;28;20478;-93
2022/07/10 10:53:26;;;;;;;3.50;2.30;;;20.20;93.40;;;;;;4975682;28;20555;-92
2022/07/10 10:56:22;;;;;;;2.23;1.97;;;20.00;92.20;;;;;;4960432;28;20492;-92
2022/07/10 11:02:41;;;;;;;3.23;1.90;;;19.80;92.30;;;;;;4981846;28;20657;-92
2022/07/10 11:05:38;;;;;;;3.80;2.40;;;20.30;91.80;;;;;;4962852;28;20444;-93
2022/07/10 11:08:04;;;;;;;2.63;2.40;;;21.30;93.20;;;;;;4995889;28;20445;-96
2022/07/10 11:10:46;;;;;;;2.57;2.37;;;21.60;90.90;;;;;;4990121;28;20868;-96
2022/07/10 11:13:16;;;;;;;4.17;2.13;;;20.40;88.90;;;;;;4980871;28;20974;-96
2022/07/10 11:16:02;;;;;;;;;;;;;;;;;;;;;
2022/07/10 11:19:03;;;;;;;2.10;1.83;;;20.50;90.90;;;;;;5004841;28;20535;-96
2022/07/10 11:21:38;;;;;;;2.63;2.43;;;21.40;90.50;;;;;;4985037;28;20460;-96
2022/07/10 11:24:21;;;;;;;1.97;1.77;;;21.20;90.90;;;;;;5004647;28;20432;-96
2022/07/10 11:27:17;;;;;;;2.13;1.87;;;20.90;90.60;;;;;;5012999;28;20413;-96
2022/07/10 11:30:30;;;;;;;3.33;2.00;;;21.20;89.70;;;;;;5003461;28;20438;-96
2022/07/10 13:55:39;;;;;;;1.57;0.90;;;25.00;77.20;;;;;;1932302;23;21279;-91
2022/07/10 13:58:06;;;;;;;3.50;1.20;;;25.70;70.40;;;;;;5005364;28;20527;-90
2022/07/10 14:00:31;;;;;;;3.40;1.20;;;26.30;70.00;;;;;;5007492;28;20443;-92
2022/07/10 14:02:57;;;;;;;2.57;1.50;;;27.50;71.30;;;;;;5006743;28;20946;-94
2022/07/10 14:05:24;;;;;;;1.13;0.90;;;28.40;65.00;;;;;;4996336;28;20192;-91
2022/07/10 14:07:49;;;;;;;2.67;1.20;;;29.00;66.30;;;;;;4994877;28;20910;-93
2022/07/10 14:10:15;;;;;;;4.33;0.97;;;31.20;59.80;;;;;;5013841;28;20898;-95
2022/07/10 14:12:41;;;;;;;2.03;1.27;;;32.40;54.60;;;;;;4997965;28;20425;-92
2022/07/10 14:15:13;;;;;;;1.77;0.80;;;32.00;54.60;;;;;;4993536;28;20200;-94
2022/07/10 14:17:39;;;;;;;3.87;1.70;;;34.20;50.00;;;;;;4997867;28;24409;-93
2022/07/10 14:20:05;;;;;;;1.20;1.10;;;33.80;47.00;;;;;;4999401;28;20447;-93
2022/07/10 14:22:31;;;;;;;8.97;8.17;;;29.20;50.00;;;;;;5000325;28;20663;-89
2022/07/10 14:25:00;;;;;;;3.07;1.53;;;28.70;53.80;;;;;;4994431;28;20428;-92
2022/07/10 14:27:27;;;;;;;2.60;1.07;;;28.10;56.90;;;;;;4994862;28;20181;-91
2022/07/10 14:29:53;;;;;;;1.90;1.33;;;29.20;55.90;;;;;;4996326;28;20447;-90
2022/07/10 14:32:19;;;;;;;2.57;1.53;;;31.30;52.40;;;;;;4997724;28;20466;-91
2022/07/10 14:34:44;;;;;;;3.00;2.77;;;30.30;52.90;;;;;;4997789;28;20185;-91
2022/07/10 14:37:11;;;;;;;1.50;1.00;;;29.80;54.00;;;;;;4992560;28;20579;-91
2022/07/10 14:39:36;;;;;;;1.20;0.90;;;30.00;52.60;;;;;;4992424;28;20208;-88
2022/07/10 14:42:04;;;;;;;1.63;0.90;;;29.60;52.10;;;;;;4994905;28;20551;-89
2022/07/10 14:44:32;;;;;;;2.70;1.03;;;28.80;53.00;;;;;;4996834;28;20309;-89
2022/07/10 14:46:57;;;;;;;1.33;1.00;;;29.60;54.10;;;;;;4995825;28;20447;-89
2022/07/10 14:49:23;;;;;;;1.13;1.10;;;29.90;50.20;;;;;;4995822;28;20434;-89
2022/07/10 14:51:49;;;;;;;1.20;1.00;;;29.70;52.30;;;;;;4994929;28;20192;-90
2022/07/10 14:54:17;;;;;;;1.63;1.10;;;33.70;51.70;;;;;;4990160;28;20373;-89
2022/07/10 14:56:44;;;;;;;1.40;1.30;;;33.00;46.50;;;;;;4992125;28;20304;-89
2022/07/10 14:59:10;;;;;;;1.93;1.10;;;31.40;49.30;;;;;;4998459;28;20447;-89
2022/07/10 15:01:35;;;;;;;1.33;1.00;;;31.30;51.30;;;;;;4996111;28;20507;-90
2022/07/10 15:04:01;;;;;;;0.87;0.87;;;34.40;49.40;;;;;;4995715;28;20213;-88
2022/07/10 15:06:44;;;;;;;2.27;1.53;;;33.60;45.40;;;;;;4992344;28;20197;-92
2022/07/10 15:09:10;;;;;;;1.83;1.00;;;33.90;47.00;;;;;;4994940;28;20181;-90
2022/07/10 15:11:36;;;;;;;1.43;0.80;;;35.00;45.70;;;;;;4986652;28;20980;-92
2022/07/10 15:14:12;;;;;;;1.33;0.93;;;37.00;42.10;;;;;;4995690;28;20185;-94
2022/07/10 15:17:11;;;;;;;3.40;1.60;;;38.30;42.10;;;;;;4979223;28;20801;-91
2022/07/10 15:19:39;;;;;;;1.90;1.00;;;38.60;39.80;;;;;;4994389;28;20458;-90
2022/07/10 15:22:10;;;;;;;3.53;1.23;;;37.70;41.10;;;;;;4991401;28;20459;-92
2022/07/10 15:24:36;;;;;;;1.00;0.90;;;34.90;41.20;;;;;;4989364;28;20451;-91
2022/07/10 15:27:02;;;;;;;1.70;0.87;;;35.50;42.00;;;;;;4996909;28;21028;-93
2022/07/10 15:29:29;;;;;;;1.17;1.03;;;34.80;42.20;;;;;;4998722;28;20230;-96
2022/07/10 15:31:55;;;;;;;48.40;44.50;;;35.00;39.80;;;;;;4998904;28;20721;-93
2022/07/10 15:34:21;;;;;;;14.73;13.60;;;35.70;42.90;;;;;;4998319;28;20443;-92
2022/07/10 15:36:48;;;;;;;1.83;1.17;;;38.10;39.40;;;;;;4992749;28;20217;-93